sensor_id;sensor_type;location;lat;lon;timestamp;P1;durP1;ratioP1;P2;durP2;ratioP2
19919;SDS011;10122;50.074;19.920;2023-03-03T00:02:23;78.00;;;36.37;;
19919;SDS011;10122;50.074;19.920;2023-03-03T00:04:48;78.10;;;36.17;;
19919;SDS011;10122;50.074;19.920;2023-03-03T00:07:14;79.07;;;37.03;;
19919;SDS011;10122;50.074;19.920;2023-03-03T00:09:46;79.97;;;36.50;;
19919;SDS011;10122;50.074;19.920;2023-03-03T00:12:30;78.77;;;36.37;;
19919;SDS011;10122;50.074;19.920;2023-03-03T00:14:58;82.07;;;36.17;;
19919;SDS011;10122;50.074;19.920;2023-03-03T00:17:27;77.07;;;36.07;;
19919;SDS011;10122;50.074;19.920;2023-03-03T00:19:54;75.50;;;36.40;;
19919;SDS011;10122;50.074;19.920;2023-03-03T00:22:30;72.03;;;35.23;;
19919;SDS011;10122;50.074;19.920;2023-03-03T00:25:14;76.80;;;36.77;;
19919;SDS011;10122;50.074;19.920;2023-03-03T00:27:48;76.70;;;37.43;;
19919;SDS011;10122;50.074;19.920;2023-03-03T00:30:24;86.87;;;37.17;;
19919;SDS011;10122;50.074;19.920;2023-03-03T00:32:52;75.63;;;35.67;;
19919;SDS011;10122;50.074;19.920;2023-03-03T00:35:25;79.17;;;35.83;;
19919;SDS011;10122;50.074;19.920;2023-03-03T00:38:00;81.33;;;36.50;;
19919;SDS011;10122;50.074;19.920;2023-03-03T00:40:35;74.80;;;34.83;;
19919;SDS011;10122;50.074;19.920;2023-03-03T00:43:11;78.37;;;35.23;;
19919;SDS011;10122;50.074;19.920;2023-03-03T00:48:10;79.20;;;35.70;;
19919;SDS011;10122;50.074;19.920;2023-03-03T00:50:50;79.07;;;35.73;;
19919;SDS011;10122;50.074;19.920;2023-03-03T00:53:23;76.97;;;35.83;;
19919;SDS011;10122;50.074;19.920;2023-03-03T00:55:51;75.20;;;35.40;;
19919;SDS011;10122;50.074;19.920;2023-03-03T00:58:17;79.73;;;34.97;;
19919;SDS011;10122;50.074;19.920;2023-03-03T01:00:46;79.70;;;35.13;;
19919;SDS011;10122;50.074;19.920;2023-03-03T01:03:17;74.93;;;34.33;;
19919;SDS011;10122;50.074;19.920;2023-03-03T01:05:45;73.37;;;33.53;;
19919;SDS011;10122;50.074;19.920;2023-03-03T01:08:12;73.40;;;34.00;;
19919;SDS011;10122;50.074;19.920;2023-03-03T01:10:40;74.53;;;33.70;;
19919;SDS011;10122;50.074;19.920;2023-03-03T01:13:09;71.77;;;33.10;;
19919;SDS011;10122;50.074;19.920;2023-03-03T01:15:35;77.03;;;33.57;;
19919;SDS011;10122;50.074;19.920;2023-03-03T01:18:02;74.57;;;33.23;;
19919;SDS011;10122;50.074;19.920;2023-03-03T01:20:27;70.13;;;31.80;;
19919;SDS011;10122;50.074;19.920;2023-03-03T01:22:53;73.10;;;33.00;;
19919;SDS011;10122;50.074;19.920;2023-03-03T01:25:19;75.93;;;34.43;;
19919;SDS011;10122;50.074;19.920;2023-03-03T01:27:45;76.30;;;34.60;;
19919;SDS011;10122;50.074;19.920;2023-03-03T01:30:11;74.60;;;33.53;;
19919;SDS011;10122;50.074;19.920;2023-03-03T01:32:37;75.20;;;34.23;;
19919;SDS011;10122;50.074;19.920;2023-03-03T01:35:02;75.77;;;34.17;;
19919;SDS011;10122;50.074;19.920;2023-03-03T01:37:29;78.67;;;34.67;;
19919;SDS011;10122;50.074;19.920;2023-03-03T01:39:54;74.03;;;35.00;;
19919;SDS011;10122;50.074;19.920;2023-03-03T01:42:20;74.43;;;34.23;;
19919;SDS011;10122;50.074;19.920;2023-03-03T01:44:46;78.33;;;34.30;;
19919;SDS011;10122;50.074;19.920;2023-03-03T01:47:16;72.53;;;33.87;;
19919;SDS011;10122;50.074;19.920;2023-03-03T01:49:55;73.23;;;33.70;;
19919;SDS011;10122;50.074;19.920;2023-03-03T01:52:25;69.60;;;32.70;;
19919;SDS011;10122;50.074;19.920;2023-03-03T01:54:53;74.07;;;33.17;;
19919;SDS011;10122;50.074;19.920;2023-03-03T01:57:27;68.37;;;32.23;;
19919;SDS011;10122;50.074;19.920;2023-03-03T01:59:57;75.00;;;32.87;;
19919;SDS011;10122;50.074;19.920;2023-03-03T02:02:24;73.37;;;33.93;;
19919;SDS011;10122;50.074;19.920;2023-03-03T02:04:52;76.17;;;34.07;;
19919;SDS011;10122;50.074;19.920;2023-03-03T02:07:18;72.37;;;33.07;;
19919;SDS011;10122;50.074;19.920;2023-03-03T02:09:57;75.60;;;32.80;;
19919;SDS011;10122;50.074;19.920;2023-03-03T02:12:33;69.73;;;32.60;;
19919;SDS011;10122;50.074;19.920;2023-03-03T02:15:16;70.60;;;31.90;;
19919;SDS011;10122;50.074;19.920;2023-03-03T02:18:06;67.13;;;31.97;;
19919;SDS011;10122;50.074;19.920;2023-03-03T02:28:22;74.27;;;32.87;;
19919;SDS011;10122;50.074;19.920;2023-03-03T02:30:51;71.43;;;32.50;;
19919;SDS011;10122;50.074;19.920;2023-03-03T02:33:19;76.53;;;33.23;;
19919;SDS011;10122;50.074;19.920;2023-03-03T02:35:44;74.50;;;33.33;;
19919;SDS011;10122;50.074;19.920;2023-03-03T02:38:16;76.17;;;33.30;;
19919;SDS011;10122;50.074;19.920;2023-03-03T02:46:38;73.27;;;32.47;;
19919;SDS011;10122;50.074;19.920;2023-03-03T02:49:06;72.53;;;33.63;;
19919;SDS011;10122;50.074;19.920;2023-03-03T02:51:34;71.40;;;32.60;;
19919;SDS011;10122;50.074;19.920;2023-03-03T02:53:59;74.00;;;32.97;;
19919;SDS011;10122;50.074;19.920;2023-03-03T02:56:25;72.63;;;32.33;;
19919;SDS011;10122;50.074;19.920;2023-03-03T02:58:51;73.23;;;32.33;;
19919;SDS011;10122;50.074;19.920;2023-03-03T03:01:17;71.97;;;32.27;;
19919;SDS011;10122;50.074;19.920;2023-03-03T03:03:43;69.10;;;33.60;;
19919;SDS011;10122;50.074;19.920;2023-03-03T03:06:09;71.63;;;31.90;;
19919;SDS011;10122;50.074;19.920;2023-03-03T03:08:35;71.77;;;32.17;;
19919;SDS011;10122;50.074;19.920;2023-03-03T03:11:01;68.70;;;32.90;;
19919;SDS011;10122;50.074;19.920;2023-03-03T03:13:30;68.50;;;32.20;;
19919;SDS011;10122;50.074;19.920;2023-03-03T03:15:56;69.97;;;31.83;;
19919;SDS011;10122;50.074;19.920;2023-03-03T03:18:23;74.03;;;32.83;;
19919;SDS011;10122;50.074;19.920;2023-03-03T03:20:49;75.30;;;32.77;;
19919;SDS011;10122;50.074;19.920;2023-03-03T03:23:15;72.73;;;32.60;;
19919;SDS011;10122;50.074;19.920;2023-03-03T03:25:41;70.40;;;32.73;;
19919;SDS011;10122;50.074;19.920;2023-03-03T03:28:11;68.67;;;32.20;;
19919;SDS011;10122;50.074;19.920;2023-03-03T03:30:37;72.27;;;32.83;;
19919;SDS011;10122;50.074;19.920;2023-03-03T03:33:03;71.63;;;32.47;;
19919;SDS011;10122;50.074;19.920;2023-03-03T03:35:29;69.07;;;32.07;;
19919;SDS011;10122;50.074;19.920;2023-03-03T03:37:56;67.43;;;31.87;;
19919;SDS011;10122;50.074;19.920;2023-03-03T03:40:22;71.87;;;32.17;;
19919;SDS011;10122;50.074;19.920;2023-03-03T03:42:49;65.90;;;32.00;;
19919;SDS011;10122;50.074;19.920;2023-03-03T03:45:15;71.63;;;32.83;;
19919;SDS011;10122;50.074;19.920;2023-03-03T03:47:42;73.03;;;32.73;;
19919;SDS011;10122;50.074;19.920;2023-03-03T03:50:08;71.70;;;32.27;;
19919;SDS011;10122;50.074;19.920;2023-03-03T03:52:34;71.20;;;32.30;;
19919;SDS011;10122;50.074;19.920;2023-03-03T03:55:00;69.97;;;32.17;;
19919;SDS011;10122;50.074;19.920;2023-03-03T03:57:26;74.70;;;32.80;;
19919;SDS011;10122;50.074;19.920;2023-03-03T03:59:51;73.43;;;32.97;;
19919;SDS011;10122;50.074;19.920;2023-03-03T04:02:17;69.20;;;32.37;;
19919;SDS011;10122;50.074;19.920;2023-03-03T04:04:43;66.13;;;31.67;;
19919;SDS011;10122;50.074;19.920;2023-03-03T04:07:09;67.77;;;32.80;;
19919;SDS011;10122;50.074;19.920;2023-03-03T04:09:34;72.00;;;32.77;;
19919;SDS011;10122;50.074;19.920;2023-03-03T04:12:00;72.33;;;33.33;;
19919;SDS011;10122;50.074;19.920;2023-03-03T04:14:26;70.87;;;31.93;;
19919;SDS011;10122;50.074;19.920;2023-03-03T04:16:52;73.70;;;33.33;;
19919;SDS011;10122;50.074;19.920;2023-03-03T04:19:17;72.70;;;32.30;;
19919;SDS011;10122;50.074;19.920;2023-03-03T04:21:43;72.23;;;33.27;;
19919;SDS011;10122;50.074;19.920;2023-03-03T04:24:09;66.87;;;31.90;;
19919;SDS011;10122;50.074;19.920;2023-03-03T04:26:34;75.47;;;32.83;;
19919;SDS011;10122;50.074;19.920;2023-03-03T04:29:00;80.10;;;33.90;;
19919;SDS011;10122;50.074;19.920;2023-03-03T04:31:26;77.67;;;34.20;;
19919;SDS011;10122;50.074;19.920;2023-03-03T04:33:52;75.70;;;34.83;;
19919;SDS011;10122;50.074;19.920;2023-03-03T04:36:18;80.20;;;33.63;;
19919;SDS011;10122;50.074;19.920;2023-03-03T04:38:44;78.83;;;34.27;;
19919;SDS011;10122;50.074;19.920;2023-03-03T04:41:10;76.27;;;34.00;;
19919;SDS011;10122;50.074;19.920;2023-03-03T04:43:36;72.73;;;34.17;;
19919;SDS011;10122;50.074;19.920;2023-03-03T04:46:02;75.00;;;34.07;;
19919;SDS011;10122;50.074;19.920;2023-03-03T04:48:28;79.67;;;35.17;;
19919;SDS011;10122;50.074;19.920;2023-03-03T04:50:54;75.17;;;33.00;;
19919;SDS011;10122;50.074;19.920;2023-03-03T04:53:20;76.10;;;33.63;;
19919;SDS011;10122;50.074;19.920;2023-03-03T04:55:46;74.03;;;33.40;;
19919;SDS011;10122;50.074;19.920;2023-03-03T04:58:14;72.37;;;33.23;;
19919;SDS011;10122;50.074;19.920;2023-03-03T05:00:39;73.83;;;33.87;;
19919;SDS011;10122;50.074;19.920;2023-03-03T05:03:05;71.87;;;33.53;;
19919;SDS011;10122;50.074;19.920;2023-03-03T05:05:32;71.37;;;32.70;;
19919;SDS011;10122;50.074;19.920;2023-03-03T05:07:58;70.30;;;32.70;;
19919;SDS011;10122;50.074;19.920;2023-03-03T05:10:23;67.30;;;30.77;;
19919;SDS011;10122;50.074;19.920;2023-03-03T05:12:49;73.00;;;32.60;;
19919;SDS011;10122;50.074;19.920;2023-03-03T05:15:15;72.90;;;32.63;;
19919;SDS011;10122;50.074;19.920;2023-03-03T05:17:40;71.83;;;31.77;;
19919;SDS011;10122;50.074;19.920;2023-03-03T05:20:06;69.60;;;33.13;;
19919;SDS011;10122;50.074;19.920;2023-03-03T05:22:33;72.60;;;32.70;;
19919;SDS011;10122;50.074;19.920;2023-03-03T05:24:59;76.80;;;32.47;;
19919;SDS011;10122;50.074;19.920;2023-03-03T05:27:25;74.77;;;34.30;;
19919;SDS011;10122;50.074;19.920;2023-03-03T05:29:51;81.90;;;36.43;;
19919;SDS011;10122;50.074;19.920;2023-03-03T05:32:16;83.53;;;37.10;;
19919;SDS011;10122;50.074;19.920;2023-03-03T05:34:42;84.73;;;36.67;;
19919;SDS011;10122;50.074;19.920;2023-03-03T05:37:08;81.63;;;35.83;;
19919;SDS011;10122;50.074;19.920;2023-03-03T05:39:33;76.00;;;34.93;;
19919;SDS011;10122;50.074;19.920;2023-03-03T05:41:59;78.50;;;35.13;;
19919;SDS011;10122;50.074;19.920;2023-03-03T05:44:26;82.77;;;34.67;;
19919;SDS011;10122;50.074;19.920;2023-03-03T05:46:52;79.50;;;34.17;;
19919;SDS011;10122;50.074;19.920;2023-03-03T05:49:17;80.17;;;34.73;;
19919;SDS011;10122;50.074;19.920;2023-03-03T05:51:43;79.77;;;35.67;;
19919;SDS011;10122;50.074;19.920;2023-03-03T05:54:09;78.87;;;35.57;;
19919;SDS011;10122;50.074;19.920;2023-03-03T05:56:34;76.70;;;34.43;;
19919;SDS011;10122;50.074;19.920;2023-03-03T05:59:00;85.27;;;36.47;;
19919;SDS011;10122;50.074;19.920;2023-03-03T06:01:26;86.30;;;36.67;;
19919;SDS011;10122;50.074;19.920;2023-03-03T06:03:53;80.63;;;34.60;;
19919;SDS011;10122;50.074;19.920;2023-03-03T06:06:18;85.17;;;36.37;;
19919;SDS011;10122;50.074;19.920;2023-03-03T06:08:44;82.60;;;35.80;;
19919;SDS011;10122;50.074;19.920;2023-03-03T06:11:10;88.77;;;38.13;;
19919;SDS011;10122;50.074;19.920;2023-03-03T06:13:37;103.73;;;41.10;;
19919;SDS011;10122;50.074;19.920;2023-03-03T06:16:02;100.27;;;42.80;;
19919;SDS011;10122;50.074;19.920;2023-03-03T06:18:28;101.73;;;43.30;;
19919;SDS011;10122;50.074;19.920;2023-03-03T06:20:54;98.63;;;43.27;;
19919;SDS011;10122;50.074;19.920;2023-03-03T06:23:20;100.83;;;41.93;;
19919;SDS011;10122;50.074;19.920;2023-03-03T06:25:46;101.23;;;43.37;;
19919;SDS011;10122;50.074;19.920;2023-03-03T06:28:12;102.10;;;43.43;;
19919;SDS011;10122;50.074;19.920;2023-03-03T06:30:39;95.63;;;42.50;;
19919;SDS011;10122;50.074;19.920;2023-03-03T06:33:04;97.40;;;42.70;;
19919;SDS011;10122;50.074;19.920;2023-03-03T06:35:30;95.73;;;41.50;;
19919;SDS011;10122;50.074;19.920;2023-03-03T06:37:56;101.50;;;42.40;;
19919;SDS011;10122;50.074;19.920;2023-03-03T06:40:22;99.17;;;40.97;;
19919;SDS011;10122;50.074;19.920;2023-03-03T06:42:47;91.00;;;40.20;;
19919;SDS011;10122;50.074;19.920;2023-03-03T06:45:13;105.37;;;43.07;;
19919;SDS011;10122;50.074;19.920;2023-03-03T06:47:39;99.60;;;40.60;;
19919;SDS011;10122;50.074;19.920;2023-03-03T06:50:05;98.50;;;41.40;;
19919;SDS011;10122;50.074;19.920;2023-03-03T06:52:32;89.23;;;38.73;;
19919;SDS011;10122;50.074;19.920;2023-03-03T06:54:59;96.70;;;40.70;;
19919;SDS011;10122;50.074;19.920;2023-03-03T06:57:31;88.27;;;37.73;;
19919;SDS011;10122;50.074;19.920;2023-03-03T07:00:14;90.90;;;38.70;;
19919;SDS011;10122;50.074;19.920;2023-03-03T07:02:42;94.10;;;40.30;;
19919;SDS011;10122;50.074;19.920;2023-03-03T07:05:13;95.27;;;41.20;;
19919;SDS011;10122;50.074;19.920;2023-03-03T07:07:41;103.33;;;41.97;;
19919;SDS011;10122;50.074;19.920;2023-03-03T07:10:28;93.57;;;40.73;;
19919;SDS011;10122;50.074;19.920;2023-03-03T07:12:55;98.33;;;41.10;;
19919;SDS011;10122;50.074;19.920;2023-03-03T07:15:40;106.37;;;44.97;;
19919;SDS011;10122;50.074;19.920;2023-03-03T07:18:08;115.27;;;48.27;;
19919;SDS011;10122;50.074;19.920;2023-03-03T07:21:05;115.03;;;48.73;;
19919;SDS011;10122;50.074;19.920;2023-03-03T07:23:43;112.27;;;47.77;;
19919;SDS011;10122;50.074;19.920;2023-03-03T07:26:12;116.50;;;50.73;;
19919;SDS011;10122;50.074;19.920;2023-03-03T07:29:05;123.47;;;51.67;;
19919;SDS011;10122;50.074;19.920;2023-03-03T07:31:45;125.70;;;52.97;;
19919;SDS011;10122;50.074;19.920;2023-03-03T07:34:18;123.37;;;50.53;;
19919;SDS011;10122;50.074;19.920;2023-03-03T07:36:45;117.13;;;46.43;;
19919;SDS011;10122;50.074;19.920;2023-03-03T07:39:30;122.43;;;50.93;;
19919;SDS011;10122;50.074;19.920;2023-03-03T07:42:11;137.63;;;55.40;;
19919;SDS011;10122;50.074;19.920;2023-03-03T07:44:42;132.13;;;53.27;;
19919;SDS011;10122;50.074;19.920;2023-03-03T07:49:47;124.33;;;49.77;;
19919;SDS011;10122;50.074;19.920;2023-03-03T07:52:19;131.83;;;52.97;;
19919;SDS011;10122;50.074;19.920;2023-03-03T07:54:50;131.67;;;52.13;;
19919;SDS011;10122;50.074;19.920;2023-03-03T07:57:24;127.60;;;51.67;;
19919;SDS011;10122;50.074;19.920;2023-03-03T08:05:33;126.57;;;47.87;;
19919;SDS011;10122;50.074;19.920;2023-03-03T08:08:11;104.87;;;45.40;;
19919;SDS011;10122;50.074;19.920;2023-03-03T08:13:18;100.10;;;42.43;;
19919;SDS011;10122;50.074;19.920;2023-03-03T08:16:00;97.20;;;39.00;;
19919;SDS011;10122;50.074;19.920;2023-03-03T08:18:48;106.83;;;44.33;;
19919;SDS011;10122;50.074;19.920;2023-03-03T08:21:19;112.83;;;46.57;;
19919;SDS011;10122;50.074;19.920;2023-03-03T08:23:49;105.80;;;44.90;;
19919;SDS011;10122;50.074;19.920;2023-03-03T08:26:17;106.80;;;44.90;;
19919;SDS011;10122;50.074;19.920;2023-03-03T08:28:45;94.27;;;42.97;;
19919;SDS011;10122;50.074;19.920;2023-03-03T08:31:10;102.37;;;43.47;;
19919;SDS011;10122;50.074;19.920;2023-03-03T08:33:37;103.60;;;46.07;;
19919;SDS011;10122;50.074;19.920;2023-03-03T08:36:03;108.03;;;45.37;;
19919;SDS011;10122;50.074;19.920;2023-03-03T08:38:30;105.00;;;44.50;;
19919;SDS011;10122;50.074;19.920;2023-03-03T08:40:56;108.90;;;48.37;;
19919;SDS011;10122;50.074;19.920;2023-03-03T08:43:22;111.97;;;46.27;;
19919;SDS011;10122;50.074;19.920;2023-03-03T08:45:49;112.90;;;47.87;;
19919;SDS011;10122;50.074;19.920;2023-03-03T08:48:16;109.97;;;47.17;;
19919;SDS011;10122;50.074;19.920;2023-03-03T08:50:43;112.23;;;47.37;;
19919;SDS011;10122;50.074;19.920;2023-03-03T08:53:10;106.33;;;47.20;;
19919;SDS011;10122;50.074;19.920;2023-03-03T08:55:37;109.60;;;48.67;;
19919;SDS011;10122;50.074;19.920;2023-03-03T08:58:03;108.23;;;46.90;;
19919;SDS011;10122;50.074;19.920;2023-03-03T09:00:29;110.87;;;46.57;;
19919;SDS011;10122;50.074;19.920;2023-03-03T09:02:55;107.60;;;44.43;;
19919;SDS011;10122;50.074;19.920;2023-03-03T09:05:21;115.20;;;47.77;;
19919;SDS011;10122;50.074;19.920;2023-03-03T09:07:48;119.23;;;49.47;;
19919;SDS011;10122;50.074;19.920;2023-03-03T09:10:16;112.03;;;45.53;;
19919;SDS011;10122;50.074;19.920;2023-03-03T09:12:46;111.67;;;46.20;;
19919;SDS011;10122;50.074;19.920;2023-03-03T09:15:22;107.33;;;45.87;;
19919;SDS011;10122;50.074;19.920;2023-03-03T09:17:50;101.80;;;46.37;;
19919;SDS011;10122;50.074;19.920;2023-03-03T09:22:51;104.53;;;42.77;;
19919;SDS011;10122;50.074;19.920;2023-03-03T09:25:21;87.40;;;38.97;;
19919;SDS011;10122;50.074;19.920;2023-03-03T09:27:55;98.87;;;40.80;;
19919;SDS011;10122;50.074;19.920;2023-03-03T09:32:50;98.10;;;41.97;;
19919;SDS011;10122;50.074;19.920;2023-03-03T09:37:50;93.23;;;40.47;;
19919;SDS011;10122;50.074;19.920;2023-03-03T09:43:08;87.23;;;40.43;;
19919;SDS011;10122;50.074;19.920;2023-03-03T09:48:37;86.90;;;40.60;;
19919;SDS011;10122;50.074;19.920;2023-03-03T09:53:53;82.07;;;37.97;;
19919;SDS011;10122;50.074;19.920;2023-03-03T10:02:45;92.60;;;41.07;;
19919;SDS011;10122;50.074;19.920;2023-03-03T10:16:12;88.57;;;39.43;;
19919;SDS011;10122;50.074;19.920;2023-03-03T10:18:46;87.87;;;40.10;;
19919;SDS011;10122;50.074;19.920;2023-03-03T10:32:43;104.00;;;46.60;;
19919;SDS011;10122;50.074;19.920;2023-03-03T10:35:20;102.63;;;46.33;;
19919;SDS011;10122;50.074;19.920;2023-03-03T10:46:22;109.67;;;48.30;;
19919;SDS011;10122;50.074;19.920;2023-03-03T10:57:51;106.17;;;45.60;;
19919;SDS011;10122;50.074;19.920;2023-03-03T11:00:35;92.57;;;42.03;;
19919;SDS011;10122;50.074;19.920;2023-03-03T11:11:58;93.63;;;40.87;;
19919;SDS011;10122;50.074;19.920;2023-03-03T11:14:50;77.40;;;37.13;;
19919;SDS011;10122;50.074;19.920;2023-03-03T11:20:03;79.90;;;32.93;;
19919;SDS011;10122;50.074;19.920;2023-03-03T11:27:58;61.67;;;26.40;;
19919;SDS011;10122;50.074;19.920;2023-03-03T11:30:34;61.97;;;26.13;;
19919;SDS011;10122;50.074;19.920;2023-03-03T11:33:18;60.03;;;25.87;;
19919;SDS011;10122;50.074;19.920;2023-03-03T11:41:30;64.17;;;27.50;;
19919;SDS011;10122;50.074;19.920;2023-03-03T11:43:57;70.17;;;28.27;;
19919;SDS011;10122;50.074;19.920;2023-03-03T11:46:47;67.43;;;28.73;;
19919;SDS011;10122;50.074;19.920;2023-03-03T11:49:39;66.43;;;26.37;;
19919;SDS011;10122;50.074;19.920;2023-03-03T11:57:41;72.33;;;28.37;;
19919;SDS011;10122;50.074;19.920;2023-03-03T12:16:35;55.80;;;22.53;;
19919;SDS011;10122;50.074;19.920;2023-03-03T12:19:12;52.53;;;22.77;;
19919;SDS011;10122;50.074;19.920;2023-03-03T12:27:59;52.90;;;23.07;;
19919;SDS011;10122;50.074;19.920;2023-03-03T12:33:20;56.93;;;23.13;;
19919;SDS011;10122;50.074;19.920;2023-03-03T12:49:38;16.10;;;6.50;;
19919;SDS011;10122;50.074;19.920;2023-03-03T13:00:36;42.73;;;18.07;;
19919;SDS011;10122;50.074;19.920;2023-03-03T13:14:12;42.17;;;18.23;;
19919;SDS011;10122;50.074;19.920;2023-03-03T13:19:38;40.07;;;16.17;;
19919;SDS011;10122;50.074;19.920;2023-03-03T13:22:06;40.00;;;17.50;;
19919;SDS011;10122;50.074;19.920;2023-03-03T13:27:51;42.70;;;18.23;;
19919;SDS011;10122;50.074;19.920;2023-03-03T13:30:25;45.43;;;18.97;;
19919;SDS011;10122;50.074;19.920;2023-03-03T13:33:19;41.80;;;18.47;;
19919;SDS011;10122;50.074;19.920;2023-03-03T13:35:55;43.60;;;19.17;;
19919;SDS011;10122;50.074;19.920;2023-03-03T13:38:42;43.37;;;19.13;;
19919;SDS011;10122;50.074;19.920;2023-03-03T13:41:19;45.73;;;19.00;;
19919;SDS011;10122;50.074;19.920;2023-03-03T13:44:00;41.53;;;17.93;;
19919;SDS011;10122;50.074;19.920;2023-03-03T13:52:00;43.53;;;18.40;;
19919;SDS011;10122;50.074;19.920;2023-03-03T13:54:48;42.40;;;16.97;;
19919;SDS011;10122;50.074;19.920;2023-03-03T13:57:23;40.03;;;16.07;;
19919;SDS011;10122;50.074;19.920;2023-03-03T14:05:50;39.63;;;18.10;;
19919;SDS011;10122;50.074;19.920;2023-03-03T14:08:41;38.57;;;16.67;;
19919;SDS011;10122;50.074;19.920;2023-03-03T14:11:47;36.47;;;16.90;;
19919;SDS011;10122;50.074;19.920;2023-03-03T14:16:57;39.80;;;17.47;;
19919;SDS011;10122;50.074;19.920;2023-03-03T14:19:33;43.07;;;17.17;;
19919;SDS011;10122;50.074;19.920;2023-03-03T14:24:53;43.10;;;19.33;;
19919;SDS011;10122;50.074;19.920;2023-03-03T14:28:11;44.10;;;19.23;;
19919;SDS011;10122;50.074;19.920;2023-03-03T14:35:34;41.70;;;17.47;;
19919;SDS011;10122;50.074;19.920;2023-03-03T14:38:37;45.80;;;19.70;;
19919;SDS011;10122;50.074;19.920;2023-03-03T14:41:12;42.10;;;18.63;;
19919;SDS011;10122;50.074;19.920;2023-03-03T14:43:41;42.60;;;18.47;;
19919;SDS011;10122;50.074;19.920;2023-03-03T14:49:01;44.60;;;17.53;;
19919;SDS011;10122;50.074;19.920;2023-03-03T14:51:33;42.90;;;19.33;;
19919;SDS011;10122;50.074;19.920;2023-03-03T14:54:13;39.93;;;17.73;;
19919;SDS011;10122;50.074;19.920;2023-03-03T14:56:59;44.63;;;18.17;;
19919;SDS011;10122;50.074;19.920;2023-03-03T14:59:36;46.27;;;19.90;;
19919;SDS011;10122;50.074;19.920;2023-03-03T15:07:53;50.10;;;21.40;;
19919;SDS011;10122;50.074;19.920;2023-03-03T15:10:27;51.20;;;20.83;;
19919;SDS011;10122;50.074;19.920;2023-03-03T15:12:56;53.97;;;22.97;;
19919;SDS011;10122;50.074;19.920;2023-03-03T15:15:25;53.47;;;22.33;;
19919;SDS011;10122;50.074;19.920;2023-03-03T15:17:56;49.87;;;20.27;;
19919;SDS011;10122;50.074;19.920;2023-03-03T15:25:56;48.03;;;20.70;;
19919;SDS011;10122;50.074;19.920;2023-03-03T15:28:30;49.67;;;18.93;;
19919;SDS011;10122;50.074;19.920;2023-03-03T15:40:02;48.90;;;19.63;;
19919;SDS011;10122;50.074;19.920;2023-03-03T15:45:09;53.23;;;21.43;;
19919;SDS011;10122;50.074;19.920;2023-03-03T15:48:01;55.10;;;22.90;;
19919;SDS011;10122;50.074;19.920;2023-03-03T15:56:32;47.53;;;20.83;;
19919;SDS011;10122;50.074;19.920;2023-03-03T16:02:17;53.13;;;21.77;;
19919;SDS011;10122;50.074;19.920;2023-03-03T16:16:19;45.63;;;18.77;;
19919;SDS011;10122;50.074;19.920;2023-03-03T16:35:59;49.93;;;21.23;;
19919;SDS011;10122;50.074;19.920;2023-03-03T16:41:14;53.43;;;21.47;;
19919;SDS011;10122;50.074;19.920;2023-03-03T16:49:15;44.50;;;17.20;;
19919;SDS011;10122;50.074;19.920;2023-03-03T16:52:14;46.57;;;18.70;;
19919;SDS011;10122;50.074;19.920;2023-03-03T17:24:27;45.33;;;16.57;;
19919;SDS011;10122;50.074;19.920;2023-03-03T17:29:59;48.60;;;21.57;;
19919;SDS011;10122;50.074;19.920;2023-03-03T17:32:31;51.27;;;22.47;;
19919;SDS011;10122;50.074;19.920;2023-03-03T17:45:26;51.50;;;19.80;;
19919;SDS011;10122;50.074;19.920;2023-03-03T17:48:03;49.90;;;21.80;;
19919;SDS011;10122;50.074;19.920;2023-03-03T18:19:16;49.03;;;20.57;;
19919;SDS011;10122;50.074;19.920;2023-03-03T18:38:24;32.13;;;10.47;;
19919;SDS011;10122;50.074;19.920;2023-03-03T18:41:10;48.10;;;18.00;;
19919;SDS011;10122;50.074;19.920;2023-03-03T18:46:09;50.53;;;20.20;;
19919;SDS011;10122;50.074;19.920;2023-03-03T18:48:56;48.83;;;21.40;;
19919;SDS011;10122;50.074;19.920;2023-03-03T18:54:19;45.63;;;19.67;;
19919;SDS011;10122;50.074;19.920;2023-03-03T19:07:50;43.50;;;16.87;;
19919;SDS011;10122;50.074;19.920;2023-03-03T19:10:52;43.13;;;18.20;;
19919;SDS011;10122;50.074;19.920;2023-03-03T19:16:01;45.87;;;18.33;;
19919;SDS011;10122;50.074;19.920;2023-03-03T19:21:20;61.23;;;23.30;;
19919;SDS011;10122;50.074;19.920;2023-03-03T19:23:51;78.43;;;29.10;;
19919;SDS011;10122;50.074;19.920;2023-03-03T19:34:38;57.67;;;23.40;;
19919;SDS011;10122;50.074;19.920;2023-03-03T19:37:00;52.17;;;21.27;;
19919;SDS011;10122;50.074;19.920;2023-03-03T19:39:59;53.10;;;22.17;;
19919;SDS011;10122;50.074;19.920;2023-03-03T19:45:57;43.27;;;17.77;;
19919;SDS011;10122;50.074;19.920;2023-03-03T20:04:43;43.10;;;17.93;;
19919;SDS011;10122;50.074;19.920;2023-03-03T20:07:35;44.10;;;18.83;;
19919;SDS011;10122;50.074;19.920;2023-03-03T20:15:58;37.00;;;14.27;;
19919;SDS011;10122;50.074;19.920;2023-03-03T20:21:19;40.93;;;14.40;;
19919;SDS011;10122;50.074;19.920;2023-03-03T20:26:54;38.17;;;14.67;;
19919;SDS011;10122;50.074;19.920;2023-03-03T20:43:21;34.73;;;13.80;;
19919;SDS011;10122;50.074;19.920;2023-03-03T20:46:09;40.97;;;16.67;;
19919;SDS011;10122;50.074;19.920;2023-03-03T20:49:11;31.03;;;12.10;;
19919;SDS011;10122;50.074;19.920;2023-03-03T20:57:26;44.07;;;17.63;;
19919;SDS011;10122;50.074;19.920;2023-03-03T21:00:12;37.80;;;14.83;;
19919;SDS011;10122;50.074;19.920;2023-03-03T21:02:52;46.07;;;18.37;;
19919;SDS011;10122;50.074;19.920;2023-03-03T21:05:23;40.07;;;14.17;;
19919;SDS011;10122;50.074;19.920;2023-03-03T21:07:59;48.57;;;18.53;;
19919;SDS011;10122;50.074;19.920;2023-03-03T21:10:33;48.73;;;19.90;;
19919;SDS011;10122;50.074;19.920;2023-03-03T21:18:37;49.93;;;19.93;;
19919;SDS011;10122;50.074;19.920;2023-03-03T21:21:03;55.33;;;18.83;;
19919;SDS011;10122;50.074;19.920;2023-03-03T21:23:29;58.43;;;22.33;;
19919;SDS011;10122;50.074;19.920;2023-03-03T21:25:56;56.40;;;21.17;;
19919;SDS011;10122;50.074;19.920;2023-03-03T21:33:48;56.97;;;22.73;;
19919;SDS011;10122;50.074;19.920;2023-03-03T21:36:18;55.93;;;22.07;;
19919;SDS011;10122;50.074;19.920;2023-03-03T21:38:44;50.23;;;17.13;;
19919;SDS011;10122;50.074;19.920;2023-03-03T21:41:11;42.53;;;13.93;;
19919;SDS011;10122;50.074;19.920;2023-03-03T21:43:39;50.67;;;17.73;;
19919;SDS011;10122;50.074;19.920;2023-03-03T21:46:07;51.20;;;19.00;;
19919;SDS011;10122;50.074;19.920;2023-03-03T21:48:33;61.77;;;22.27;;
19919;SDS011;10122;50.074;19.920;2023-03-03T21:50:58;61.17;;;21.30;;
19919;SDS011;10122;50.074;19.920;2023-03-03T21:53:24;57.07;;;18.40;;
19919;SDS011;10122;50.074;19.920;2023-03-03T21:55:51;70.53;;;24.97;;
19919;SDS011;10122;50.074;19.920;2023-03-03T21:58:17;52.87;;;17.37;;
19919;SDS011;10122;50.074;19.920;2023-03-03T22:00:43;44.77;;;15.57;;
19919;SDS011;10122;50.074;19.920;2023-03-03T22:03:10;66.60;;;24.77;;
19919;SDS011;10122;50.074;19.920;2023-03-03T22:05:37;69.97;;;25.27;;